Chesapeake — WDD3041 — position and weather

sailwx.info

Track history (hours):
 
Tides and Currents Weather Stations Pressure Air Temp Water Temp Dewpoint Dewpoint Depression Visibility Wind Speed Wind Dir Waves Ship Positions

Chesapeake

Owner: Vane Line Bunkering, Baltimore, MD. More information available from US FCC via Universal Licensing System and Coast Guard Vessel Documentation Center.

Last reported at 2017-Feb-24 20:20 UTC. Time now 2017-Feb-24 21:38 UTC.
Position N 40°57' W 073°54'.

Length 34 m.

Type: Tug. MMSI: 367123040.

Date/timePositionNaut miles runAvg speedWind from/ knotsBaromVisibWave heightAir tempDewpointWater temp
2017-Feb-24 20:20N 40°57' W 073°54'5 6.0
2017-Feb-24 19:33N 40°53' W 073°56'5 5.2
2017-Feb-24 18:33N 40°48' W 073°59'5 5.3
2017-Feb-24 17:33N 40°43' W 074°01'4 4.0
2017-Feb-24 16:33N 40°39' W 074°03'0 0.0
2017-Feb-24 15:33N 40°39' W 074°03'0 0.0
2017-Feb-24 14:33N 40°39' W 074°03'0 0.2
2017-Feb-24 13:33N 40°39' W 074°03'0 0.0
2017-Feb-24 12:33N 40°39' W 074°03'0 0.0
2017-Feb-24 11:33N 40°39' W 074°03'0 0.0
2017-Feb-24 10:33N 40°39' W 074°03'0 0.1
2017-Feb-24 09:33N 40°39' W 074°03'0 0.1
2017-Feb-24 08:33N 40°39' W 074°03'0 0.1
2017-Feb-24 07:33N 40°39' W 074°03'0 0.0
2017-Feb-24 06:33N 40°39' W 074°03'0 0.0
2017-Feb-24 05:33N 40°39' W 074°03'3 3.1
2017-Feb-24 04:33N 40°36' W 074°02'2 2.3
2017-Feb-24 03:33N 40°34' W 074°02'4 3.9
2017-Feb-24 02:33N 40°31' W 073°58'4 4.3
2017-Feb-24 01:33N 40°29' W 073°54'7 6.5
2017-Feb-24 00:32N 40°22' W 073°53'32 7.4
2017-Feb-23 20:11N 39°50' W 073°57'5 7.6
2017-Feb-23 19:33N 39°45' W 073°59'7 7.4
2017-Feb-23 18:33N 39°38' W 074°02'7 7.4
2017-Feb-23 17:33N 39°32' W 074°06'29 7.1
2017-Feb-23 13:32N 39°09' W 074°29'16 7.1
2017-Feb-23 11:16N 38°57' W 074°43'5 6.8
2017-Feb-23 10:33N 38°54' W 074°47'6 6.3
2017-Feb-23 09:33N 38°49' W 074°53'6 5.9
2017-Feb-23 08:33N 38°48' W 075°00'21 6.2
2017-Feb-23 05:16N 39°06' W 075°12'6 8.2
2017-Feb-23 04:33N 39°11' W 075°17'8 8.3
2017-Feb-23 03:33N 39°18' W 075°23'5 4.6
2017-Feb-23 02:33N 39°21' W 075°27'8 7.8
2017-Feb-23 01:33N 39°27' W 075°34'7 6.8
2017-Feb-23 00:33N 39°34' W 075°33'6 5.6
2017-Feb-22 23:33N 39°40' W 075°32'7 7.3
2017-Feb-22 22:33N 39°46' W 075°28'8 8.4
2017-Feb-22 21:33N 39°51' W 075°19'3 2.7
2017-Feb-22 20:33N 39°51' W 075°16'0 0.0
2017-Feb-22 19:33N 39°51' W 075°16'1 0.6
2017-Feb-22 18:33N 39°51' W 075°15'3 3.2
2017-Feb-22 17:33N 39°54' W 075°12'0 0.0
2017-Feb-22 16:33N 39°54' W 075°12'0 0.0
2017-Feb-22 15:33N 39°54' W 075°12'0 0.0
2017-Feb-22 14:33N 39°54' W 075°12'0 0.0
2017-Feb-22 13:33N 39°54' W 075°12'0 0.0
2017-Feb-22 12:33N 39°54' W 075°12'0 0.0
2017-Feb-22 11:33N 39°54' W 075°12'0 0.0
2017-Feb-22 10:33N 39°54' W 075°12'0 0.0
2017-Feb-22 09:33N 39°54' W 075°12'0 0.0
2017-Feb-22 08:33N 39°54' W 075°12'0 0.0
2017-Feb-22 07:33N 39°54' W 075°12'0 0.0
2017-Feb-22 06:33N 39°54' W 075°12'0 0.0
2017-Feb-22 05:33N 39°54' W 075°12'0 0.0
2017-Feb-22 04:33N 39°54' W 075°12'0 0.0
2017-Feb-22 03:34N 39°54' W 075°12'0 0.0
2017-Feb-22 02:33N 39°54' W 075°12'0 0.1
2017-Feb-22 01:33N 39°54' W 075°12'0 0.0
2017-Feb-22 00:33N 39°54' W 075°12'1 0.7
2017-Feb-21 23:33N 39°54' W 075°12'0 0.0
2017-Feb-21 22:34N 39°54' W 075°12'0 0.0
2017-Feb-21 21:33N 39°54' W 075°12'0 0.0
2017-Feb-21 20:33N 39°54' W 075°12'0 0.0
2017-Feb-21 19:33N 39°54' W 075°12'0 0.0
2017-Feb-21 18:33N 39°54' W 075°12'0 0.0
2017-Feb-21 16:31N 39°54' W 075°12'0 0.0
2017-Feb-21 15:33N 39°54' W 075°12'2 2.2
2017-Feb-21 14:33N 39°52' W 075°13'0 0.3
2017-Feb-21 13:34N 39°52' W 075°14'3 3.0
2017-Feb-21 12:33N 39°55' W 075°13'0 0.3
2017-Feb-21 11:33N 39°54' W 075°13'1 0.8
2017-Feb-21 10:33N 39°54' W 075°12'0 0.0
2017-Feb-21 09:33N 39°54' W 075°12'0 0.0
2017-Feb-21 08:33N 39°54' W 075°12'0 0.0
2017-Feb-21 07:33N 39°54' W 075°12'0 0.0
2017-Feb-21 06:33N 39°54' W 075°12'0 0.0
2017-Feb-21 05:33N 39°54' W 075°12'0 0.0
2017-Feb-21 04:33N 39°54' W 075°12'0 0.0
2017-Feb-21 03:33N 39°54' W 075°12'0 0.0
2017-Feb-21 02:33N 39°54' W 075°12'0 0.0
2017-Feb-21 01:33N 39°54' W 075°12'0 0.0
2017-Feb-21 00:33N 39°54' W 075°12'0 0.0
2017-Feb-20 23:33N 39°54' W 075°12'0 0.0
2017-Feb-20 22:33N 39°54' W 075°12'0 0.0
2017-Feb-20 21:33N 39°54' W 075°12'0 0.0
2017-Feb-20 20:33N 39°54' W 075°12'0 0.1
2017-Feb-20 19:33N 39°54' W 075°12'1 1.1
2017-Feb-20 18:31N 39°55' W 075°13'2 2.5
2017-Feb-20 17:33N 39°52' W 075°13'3 2.7
2017-Feb-20 16:33N 39°51' W 075°16'4 4.2
2017-Feb-20 15:33N 39°53' W 075°12'0 0.0
2017-Feb-20 14:33N 39°53' W 075°12'0 0.0
2017-Feb-20 13:33N 39°53' W 075°12'0 0.0
2017-Feb-20 12:33N 39°53' W 075°12'0 0.0
2017-Feb-20 11:33N 39°53' W 075°12'0 0.0
2017-Feb-20 10:33N 39°53' W 075°12'0 0.0
2017-Feb-20 09:33N 39°53' W 075°12'0 0.0
2017-Feb-20 08:33N 39°53' W 075°12'1 0.5
2017-Feb-20 07:16N 39°54' W 075°12'0 0.0
2017-Feb-20 06:32N 39°54' W 075°12'0 0.0
2017-Feb-20 05:26N 39°54' W 075°12'0 0.0
2017-Feb-20 04:33N 39°54' W 075°12'0 0.0
2017-Feb-20 03:33N 39°54' W 075°12'0 0.0
2017-Feb-20 02:34N 39°54' W 075°12'0 0.0
2017-Feb-20 01:33N 39°54' W 075°12'0 0.0
2017-Feb-20 00:33N 39°54' W 075°12'0 0.0
2017-Feb-19 23:33N 39°54' W 075°12'0 0.4
2017-Feb-19 22:33N 39°54' W 075°12'4 4.2
2017-Feb-19 21:33N 39°51' W 075°16'3 2.6
2017-Feb-19 20:33N 39°52' W 075°13'0 0.1
2017-Feb-19 19:33N 39°52' W 075°13'0 0.1
2017-Feb-19 18:33N 39°52' W 075°13'0 0.0
2017-Feb-19 17:33N 39°52' W 075°13'0 0.0
2017-Feb-19 16:33N 39°52' W 075°13'0 0.0
2017-Feb-19 15:33N 39°52' W 075°13'0 0.0
2017-Feb-19 14:33N 39°52' W 075°13'0 0.1
2017-Feb-19 13:33N 39°52' W 075°13'0 0.1
2017-Feb-19 12:33N 39°52' W 075°13'0 0.0
2017-Feb-19 11:33N 39°52' W 075°13'0 0.0
2017-Feb-19 10:33N 39°52' W 075°13'0 0.0
2017-Feb-19 09:33N 39°52' W 075°13'0 0.0
2017-Feb-19 08:34N 39°52' W 075°13'0 0.1
2017-Feb-19 07:33N 39°52' W 075°13'0 0.0
2017-Feb-19 06:33N 39°52' W 075°13'0 0.0
2017-Feb-19 05:33N 39°52' W 075°13'0 0.0
2017-Feb-19 04:33N 39°52' W 075°13'0 0.0
2017-Feb-19 03:33N 39°52' W 075°13'0 0.0
2017-Feb-19 02:33N 39°52' W 075°13'0 0.1
2017-Feb-19 01:33N 39°52' W 075°13'0 0.0
2017-Feb-19 00:33N 39°52' W 075°13'0 0.0
2017-Feb-18 23:33N 39°52' W 075°13'0 0.4
2017-Feb-18 22:33N 39°52' W 075°13'8 7.5
2017-Feb-18 21:33N 39°49' W 075°23'1110.8
2017-Feb-18 20:33N 39°41' W 075°31'1010.2
2017-Feb-18 19:33N 39°31' W 075°33'1010.2
2017-Feb-18 18:33N 39°22' W 075°27'1110.7
2017-Feb-18 17:33N 39°14' W 075°18'1110.7
2017-Feb-18 16:33N 39°04' W 075°11'1110.9
2017-Feb-18 15:33N 38°55' W 075°05'10 8.7
2017-Feb-18 14:28N 38°48' W 074°56'18 9.4
2017-Feb-18 12:32N 39°01' W 074°39'9 9.5
2017-Feb-18 11:33N 39°08' W 074°31'20 9.8
2017-Feb-18 09:31N 39°23' W 074°14'1210.0
2017-Feb-18 08:21N 39°33' W 074°06'810.1
2017-Feb-18 07:33N 39°40' W 074°01'1010.2
2017-Feb-18 06:33N 39°50' W 073°57'4010.0
2017-Feb-18 02:33N 40°29' W 073°55'8 8.2
2017-Feb-18 01:33N 40°36' W 074°02'8 8.1
2017-Feb-18 00:33N 40°44' W 074°01'9 9.4
2017-Feb-17 23:33N 40°52' W 073°56'  
2017-Feb-15 19:07N 40°56' W 073°55'5 9.1
2017-Feb-15 18:33N 40°51' W 073°57'9 9.4
2017-Feb-15 17:33N 40°42' W 074°02'3 3.0
2017-Feb-15 16:33N 40°39' W 074°02'0 0.0
2017-Feb-15 15:33N 40°39' W 074°02'0 0.0
2017-Feb-15 14:33N 40°39' W 074°02'0 0.0
2017-Feb-15 13:33N 40°39' W 074°02'0 0.1
2017-Feb-15 12:33N 40°39' W 074°02'0 0.1
2017-Feb-15 11:33N 40°39' W 074°03'0 0.0
2017-Feb-15 10:33N 40°39' W 074°02'0 0.0
2017-Feb-15 09:33N 40°39' W 074°02'0 0.0
2017-Feb-15 08:33N 40°39' W 074°02'0 0.1
2017-Feb-15 07:33N 40°39' W 074°03'0 0.2
2017-Feb-15 06:33N 40°40' W 074°02'0 0.0
2017-Feb-15 05:33N 40°40' W 074°02'0 0.1
2017-Feb-15 04:33N 40°39' W 074°02'0 0.0
2017-Feb-15 03:33N 40°40' W 074°02'2 2.4
2017-Feb-15 02:33N 40°37' W 074°03'5 5.1
2017-Feb-15 01:33N 40°32' W 074°01'7 6.6
2017-Feb-15 00:33N 40°29' W 073°54'6 5.7
2017-Feb-14 23:33N 40°23' W 073°54'  
Track history (hours):
 
Tides and Currents Weather Stations Pressure Air Temp Water Temp Dewpoint Dewpoint Depression Visibility Wind Speed Wind Dir Waves Ship Positions

Chesapeake

Owner: Vane Line Bunkering, Baltimore, MD. More information available from US FCC via Universal Licensing System and Coast Guard Vessel Documentation Center.

Last reported at 2017-Feb-24 20:20 UTC. Time now 2017-Feb-24 21:38 UTC.
Position N 40°57' W 073°54'.

Length 34 m.

Type: Tug. MMSI: 367123040.

Date/timePositionNaut miles runAvg speedWind from/ knotsBaromVisibWave heightAir tempDewpointWater temp
2017-Feb-24 20:20N 40°57' W 073°54'5 6.0
2017-Feb-24 19:33N 40°53' W 073°56'5 5.2
2017-Feb-24 18:33N 40°48' W 073°59'5 5.3
2017-Feb-24 17:33N 40°43' W 074°01'4 4.0
2017-Feb-24 16:33N 40°39' W 074°03'0 0.0
2017-Feb-24 15:33N 40°39' W 074°03'0 0.0
2017-Feb-24 14:33N 40°39' W 074°03'0 0.2
2017-Feb-24 13:33N 40°39' W 074°03'0 0.0
2017-Feb-24 12:33N 40°39' W 074°03'0 0.0
2017-Feb-24 11:33N 40°39' W 074°03'0 0.0
2017-Feb-24 10:33N 40°39' W 074°03'0 0.1
2017-Feb-24 09:33N 40°39' W 074°03'0 0.1
2017-Feb-24 08:33N 40°39' W 074°03'0 0.1
2017-Feb-24 07:33N 40°39' W 074°03'0 0.0
2017-Feb-24 06:33N 40°39' W 074°03'0 0.0
2017-Feb-24 05:33N 40°39' W 074°03'3 3.1
2017-Feb-24 04:33N 40°36' W 074°02'2 2.3
2017-Feb-24 03:33N 40°34' W 074°02'4 3.9
2017-Feb-24 02:33N 40°31' W 073°58'4 4.3
2017-Feb-24 01:33N 40°29' W 073°54'7 6.5
2017-Feb-24 00:32N 40°22' W 073°53'32 7.4
2017-Feb-23 20:11N 39°50' W 073°57'5 7.6
2017-Feb-23 19:33N 39°45' W 073°59'7 7.4
2017-Feb-23 18:33N 39°38' W 074°02'7 7.4
2017-Feb-23 17:33N 39°32' W 074°06'29 7.1
2017-Feb-23 13:32N 39°09' W 074°29'16 7.1
2017-Feb-23 11:16N 38°57' W 074°43'5 6.8
2017-Feb-23 10:33N 38°54' W 074°47'6 6.3
2017-Feb-23 09:33N 38°49' W 074°53'6 5.9
2017-Feb-23 08:33N 38°48' W 075°00'21 6.2
2017-Feb-23 05:16N 39°06' W 075°12'6 8.2
2017-Feb-23 04:33N 39°11' W 075°17'8 8.3
2017-Feb-23 03:33N 39°18' W 075°23'5 4.6
2017-Feb-23 02:33N 39°21' W 075°27'8 7.8
2017-Feb-23 01:33N 39°27' W 075°34'7 6.8
2017-Feb-23 00:33N 39°34' W 075°33'6 5.6
2017-Feb-22 23:33N 39°40' W 075°32'7 7.3
2017-Feb-22 22:33N 39°46' W 075°28'8 8.4
2017-Feb-22 21:33N 39°51' W 075°19'3 2.7
2017-Feb-22 20:33N 39°51' W 075°16'0 0.0
2017-Feb-22 19:33N 39°51' W 075°16'1 0.6
2017-Feb-22 18:33N 39°51' W 075°15'3 3.2
2017-Feb-22 17:33N 39°54' W 075°12'0 0.0
2017-Feb-22 16:33N 39°54' W 075°12'0 0.0
2017-Feb-22 15:33N 39°54' W 075°12'0 0.0
2017-Feb-22 14:33N 39°54' W 075°12'0 0.0
2017-Feb-22 13:33N 39°54' W 075°12'0 0.0
2017-Feb-22 12:33N 39°54' W 075°12'0 0.0
2017-Feb-22 11:33N 39°54' W 075°12'0 0.0
2017-Feb-22 10:33N 39°54' W 075°12'0 0.0
2017-Feb-22 09:33N 39°54' W 075°12'0 0.0
2017-Feb-22 08:33N 39°54' W 075°12'0 0.0
2017-Feb-22 07:33N 39°54' W 075°12'0 0.0
2017-Feb-22 06:33N 39°54' W 075°12'0 0.0
2017-Feb-22 05:33N 39°54' W 075°12'0 0.0
2017-Feb-22 04:33N 39°54' W 075°12'0 0.0
2017-Feb-22 03:34N 39°54' W 075°12'0 0.0
2017-Feb-22 02:33N 39°54' W 075°12'0 0.1
2017-Feb-22 01:33N 39°54' W 075°12'0 0.0
2017-Feb-22 00:33N 39°54' W 075°12'1 0.7
2017-Feb-21 23:33N 39°54' W 075°12'0 0.0
2017-Feb-21 22:34N 39°54' W 075°12'0 0.0
2017-Feb-21 21:33N 39°54' W 075°12'0 0.0
2017-Feb-21 20:33N 39°54' W 075°12'0 0.0
2017-Feb-21 19:33N 39°54' W 075°12'0 0.0
2017-Feb-21 18:33N 39°54' W 075°12'0 0.0
2017-Feb-21 16:31N 39°54' W 075°12'0 0.0
2017-Feb-21 15:33N 39°54' W 075°12'2 2.2
2017-Feb-21 14:33N 39°52' W 075°13'0 0.3
2017-Feb-21 13:34N 39°52' W 075°14'3 3.0
2017-Feb-21 12:33N 39°55' W 075°13'0 0.3
2017-Feb-21 11:33N 39°54' W 075°13'1 0.8
2017-Feb-21 10:33N 39°54' W 075°12'0 0.0
2017-Feb-21 09:33N 39°54' W 075°12'0 0.0
2017-Feb-21 08:33N 39°54' W 075°12'0 0.0
2017-Feb-21 07:33N 39°54' W 075°12'0 0.0
2017-Feb-21 06:33N 39°54' W 075°12'0 0.0
2017-Feb-21 05:33N 39°54' W 075°12'0 0.0
2017-Feb-21 04:33N 39°54' W 075°12'0 0.0
2017-Feb-21 03:33N 39°54' W 075°12'0 0.0
2017-Feb-21 02:33N 39°54' W 075°12'0 0.0
2017-Feb-21 01:33N 39°54' W 075°12'0 0.0
2017-Feb-21 00:33N 39°54' W 075°12'0 0.0
2017-Feb-20 23:33N 39°54' W 075°12'0 0.0
2017-Feb-20 22:33N 39°54' W 075°12'0 0.0
2017-Feb-20 21:33N 39°54' W 075°12'0 0.0
2017-Feb-20 20:33N 39°54' W 075°12'0 0.1
2017-Feb-20 19:33N 39°54' W 075°12'1 1.1
2017-Feb-20 18:31N 39°55' W 075°13'2 2.5
2017-Feb-20 17:33N 39°52' W 075°13'3 2.7
2017-Feb-20 16:33N 39°51' W 075°16'4 4.2
2017-Feb-20 15:33N 39°53' W 075°12'0 0.0
2017-Feb-20 14:33N 39°53' W 075°12'0 0.0
2017-Feb-20 13:33N 39°53' W 075°12'0 0.0
2017-Feb-20 12:33N 39°53' W 075°12'0 0.0
2017-Feb-20 11:33N 39°53' W 075°12'0 0.0
2017-Feb-20 10:33N 39°53' W 075°12'0 0.0
2017-Feb-20 09:33N 39°53' W 075°12'0 0.0
2017-Feb-20 08:33N 39°53' W 075°12'1 0.5
2017-Feb-20 07:16N 39°54' W 075°12'0 0.0
2017-Feb-20 06:32N 39°54' W 075°12'0 0.0
2017-Feb-20 05:26N 39°54' W 075°12'0 0.0
2017-Feb-20 04:33N 39°54' W 075°12'0 0.0
2017-Feb-20 03:33N 39°54' W 075°12'0 0.0
2017-Feb-20 02:34N 39°54' W 075°12'0 0.0
2017-Feb-20 01:33N 39°54' W 075°12'0 0.0
2017-Feb-20 00:33N 39°54' W 075°12'0 0.0
2017-Feb-19 23:33N 39°54' W 075°12'0 0.4
2017-Feb-19 22:33N 39°54' W 075°12'4 4.2
2017-Feb-19 21:33N 39°51' W 075°16'3 2.6
2017-Feb-19 20:33N 39°52' W 075°13'0 0.1
2017-Feb-19 19:33N 39°52' W 075°13'0 0.1
2017-Feb-19 18:33N 39°52' W 075°13'0 0.0
2017-Feb-19 17:33N 39°52' W 075°13'0 0.0
2017-Feb-19 16:33N 39°52' W 075°13'0 0.0
2017-Feb-19 15:33N 39°52' W 075°13'0 0.0
2017-Feb-19 14:33N 39°52' W 075°13'0 0.1
2017-Feb-19 13:33N 39°52' W 075°13'0 0.1
2017-Feb-19 12:33N 39°52' W 075°13'0 0.0
2017-Feb-19 11:33N 39°52' W 075°13'0 0.0
2017-Feb-19 10:33N 39°52' W 075°13'0 0.0
2017-Feb-19 09:33N 39°52' W 075°13'0 0.0
2017-Feb-19 08:34N 39°52' W 075°13'0 0.1
2017-Feb-19 07:33N 39°52' W 075°13'0 0.0
2017-Feb-19 06:33N 39°52' W 075°13'0 0.0
2017-Feb-19 05:33N 39°52' W 075°13'0 0.0
2017-Feb-19 04:33N 39°52' W 075°13'0 0.0
2017-Feb-19 03:33N 39°52' W 075°13'0 0.0
2017-Feb-19 02:33N 39°52' W 075°13'0 0.1
2017-Feb-19 01:33N 39°52' W 075°13'0 0.0
2017-Feb-19 00:33N 39°52' W 075°13'0 0.0
2017-Feb-18 23:33N 39°52' W 075°13'0 0.4
2017-Feb-18 22:33N 39°52' W 075°13'8 7.5
2017-Feb-18 21:33N 39°49' W 075°23'1110.8
2017-Feb-18 20:33N 39°41' W 075°31'1010.2
2017-Feb-18 19:33N 39°31' W 075°33'1010.2
2017-Feb-18 18:33N 39°22' W 075°27'1110.7
2017-Feb-18 17:33N 39°14' W 075°18'1110.7
2017-Feb-18 16:33N 39°04' W 075°11'1110.9
2017-Feb-18 15:33N 38°55' W 075°05'10 8.7
2017-Feb-18 14:28N 38°48' W 074°56'18 9.4
2017-Feb-18 12:32N 39°01' W 074°39'9 9.5
2017-Feb-18 11:33N 39°08' W 074°31'20 9.8
2017-Feb-18 09:31N 39°23' W 074°14'1210.0
2017-Feb-18 08:21N 39°33' W 074°06'810.1
2017-Feb-18 07:33N 39°40' W 074°01'1010.2
2017-Feb-18 06:33N 39°50' W 073°57'4010.0
2017-Feb-18 02:33N 40°29' W 073°55'8 8.2
2017-Feb-18 01:33N 40°36' W 074°02'8 8.1
2017-Feb-18 00:33N 40°44' W 074°01'9 9.4
2017-Feb-17 23:33N 40°52' W 073°56'  
2017-Feb-15 19:07N 40°56' W 073°55'5 9.1
2017-Feb-15 18:33N 40°51' W 073°57'9 9.4
2017-Feb-15 17:33N 40°42' W 074°02'3 3.0
2017-Feb-15 16:33N 40°39' W 074°02'0 0.0
2017-Feb-15 15:33N 40°39' W 074°02'0 0.0
2017-Feb-15 14:33N 40°39' W 074°02'0 0.0
2017-Feb-15 13:33N 40°39' W 074°02'0 0.1
2017-Feb-15 12:33N 40°39' W 074°02'0 0.1
2017-Feb-15 11:33N 40°39' W 074°03'0 0.0
2017-Feb-15 10:33N 40°39' W 074°02'0 0.0
2017-Feb-15 09:33N 40°39' W 074°02'0 0.0
2017-Feb-15 08:33N 40°39' W 074°02'0 0.1
2017-Feb-15 07:33N 40°39' W 074°03'0 0.2
2017-Feb-15 06:33N 40°40' W 074°02'0 0.0
2017-Feb-15 05:33N 40°40' W 074°02'0 0.1
2017-Feb-15 04:33N 40°39' W 074°02'0 0.0
2017-Feb-15 03:33N 40°40' W 074°02'2 2.4
2017-Feb-15 02:33N 40°37' W 074°03'5 5.1
2017-Feb-15 01:33N 40°32' W 074°01'7 6.6
2017-Feb-15 00:33N 40°29' W 073°54'6 5.7
2017-Feb-14 23:33N 40°23' W 073°54'  

Dump ship's entire track history